Terminal Aerodrome Forecast
Issued by NWS

Home | Current Version | Previous Version | Graphics & Text | Print | Product List | Glossary On
Versions: 1 2 3 4 5 6 7 8 9 10 11 12 13 14 15 16 17 18 19 20 21
000
FTUS41 KCLE 010200 AAA
TAFFDY
TAF AMD
KFDY 010241Z 0103/0124 08005KT P6SM OVC050
     FM010430 12005KT 5SM -SN SCT015 OVC035
      TEMPO 0105/0108 2SM -SN OVC015
     FM010800 08003KT 1SM -SN OVC010
     FM011000 15003KT 3/4SM -SN OVC008
     FM011600 VRB04KT 4SM -SN SCT008 OVC015
     FM012000 25005KT P6SM OVC025=

USA.gov is the U.S. government's official web portal to all federal, state and local government web resources and services.